createdAt,value
2022-10-17T00:00:52.444Z,101162.56
2022-10-17T00:03:20.068Z,101159.09
2022-10-17T00:05:48.429Z,101164.28
2022-10-17T00:08:17.201Z,101165.13
2022-10-17T00:10:45.216Z,101164.25
2022-10-17T00:13:12.901Z,101162.47
2022-10-17T00:15:44.365Z,101154.56
2022-10-17T00:18:11.988Z,101162.53
2022-10-17T00:20:39.320Z,101164.28
2022-10-17T00:23:06.595Z,101164.16
2022-10-17T00:25:34.211Z,101162.50
2022-10-17T00:28:01.519Z,101161.47
2022-10-17T00:30:28.824Z,101165.81
2022-10-17T00:32:57.111Z,101168.47
2022-10-17T00:35:25.152Z,101165.00
2022-10-17T00:37:52.452Z,101173.66
2022-10-17T00:40:20.123Z,101164.00
2022-10-17T00:42:47.589Z,101172.75
2022-10-17T00:45:26.419Z,101173.63
2022-10-17T00:47:58.790Z,101173.66
2022-10-17T00:50:26.595Z,101171.03
2022-10-17T00:52:54.803Z,101169.31
2022-10-17T00:55:25.850Z,101169.19
2022-10-17T00:57:53.409Z,101172.66
2022-10-17T01:00:21.073Z,101160.44
2022-10-17T01:02:48.555Z,101159.63
2022-10-17T01:05:18.041Z,101161.41
2022-10-17T01:07:46.388Z,101155.22
2022-10-17T01:10:14.245Z,101158.63
2022-10-17T01:13:04.711Z,101163.94
2022-10-17T01:16:00.286Z,101159.47
2022-10-17T01:18:46.589Z,101160.34
2022-10-17T01:21:17.053Z,101164.75
2022-10-17T01:24:02.944Z,101158.59
2022-10-17T01:26:37.562Z,101166.34
2022-10-17T01:29:34.447Z,101165.50
2022-10-17T01:32:14.113Z,101160.31
2022-10-17T01:34:45.645Z,101161.19
2022-10-17T01:37:20.219Z,101155.06
2022-10-17T01:40:04.207Z,101157.66
2022-10-17T01:43:03.759Z,101156.69
2022-10-17T01:45:48.404Z,101160.16
2022-10-17T01:48:22.910Z,101160.94
2022-10-17T01:51:13.830Z,101161.69
2022-10-17T01:53:49.160Z,101159.22
2022-10-17T01:56:17.327Z,101162.72
2022-10-17T01:58:55.568Z,101167.94
2022-10-17T02:01:24.389Z,101168.78
2022-10-17T02:03:52.987Z,101163.56
2022-10-17T02:06:21.574Z,101167.00
2022-10-17T02:08:51.642Z,101170.38
2022-10-17T02:11:25.299Z,101177.47
2022-10-17T02:14:10.066Z,101169.59
2022-10-17T02:17:14.385Z,101172.16
2022-10-17T02:20:01.625Z,101169.44
2022-10-17T02:22:41.994Z,101164.97
2022-10-17T02:25:20.692Z,101168.53
2022-10-17T02:28:09.163Z,101170.28
2022-10-17T02:30:39.797Z,101172.91
2022-10-17T02:33:28.195Z,101168.56
2022-10-17T02:36:00.695Z,101168.53
2022-10-17T02:38:30.756Z,101169.34
2022-10-17T02:40:59.194Z,101165.75
2022-10-17T02:43:26.972Z,101170.97
2022-10-17T02:45:54.617Z,101176.31
2022-10-17T02:48:25.420Z,101176.22
2022-10-17T02:51:16.889Z,101184.03
2022-10-17T02:53:53.738Z,101188.28
2022-10-17T02:56:21.689Z,101189.09
2022-10-17T02:58:53.387Z,101190.03
2022-10-17T03:01:21.119Z,101190.03
2022-10-17T03:03:48.833Z,101196.19
2022-10-17T03:06:16.320Z,101190.88
2022-10-17T03:08:43.648Z,101198.72
2022-10-17T03:11:11.665Z,101194.38
2022-10-17T03:13:39.990Z,101196.09
2022-10-17T03:16:07.703Z,101195.19
2022-10-17T03:18:35.539Z,101196.16
2022-10-17T03:21:03.185Z,101195.09
2022-10-17T03:23:30.667Z,101200.22
2022-10-17T03:25:58.431Z,101202.81
2022-10-17T03:28:25.930Z,101204.72
2022-10-17T03:30:53.384Z,101208.97
2022-10-17T03:33:21.006Z,101219.38
2022-10-17T03:38:21.357Z,101214.94
2022-10-17T03:40:56.164Z,101215.81
2022-10-17T03:43:23.832Z,101225.38
2022-10-17T03:45:51.195Z,101236.63
2022-10-17T03:48:18.597Z,101236.44
2022-10-17T03:50:46.402Z,101228.75
2022-10-17T03:53:13.985Z,101237.44
2022-10-17T03:55:41.402Z,101239.03
2022-10-17T03:58:09.110Z,101240.63
2022-10-17T04:00:36.581Z,101229.72
2022-10-17T04:03:04.326Z,101241.72
2022-10-17T04:05:32.180Z,101235.84
2022-10-17T04:08:02.411Z,101236.81
2022-10-17T04:10:35.304Z,101241.03
2022-10-17T04:13:03.001Z,101243.63
2022-10-17T04:15:30.804Z,101241.00
2022-10-17T04:17:58.744Z,101244.31
2022-10-17T04:20:26.181Z,101246.06
2022-10-17T04:22:53.680Z,101243.44
2022-10-17T04:25:21.651Z,101250.22
2022-10-17T04:27:49.230Z,101256.34
2022-10-17T04:30:17.164Z,101263.28
2022-10-17T04:32:45.183Z,101265.81
2022-10-17T04:35:13.012Z,101265.94
2022-10-17T04:37:41.472Z,101265.84
2022-10-17T04:40:10.168Z,101265.13
2022-10-17T04:42:37.987Z,101265.25
2022-10-17T04:45:06.185Z,101259.97
2022-10-17T04:47:35.197Z,101270.44
2022-10-17T04:50:03.527Z,101268.56
2022-10-17T04:52:32.516Z,101262.44
2022-10-17T04:55:00.207Z,101265.78
2022-10-17T04:57:27.653Z,101275.38
2022-10-17T04:59:55.536Z,101273.66
2022-10-17T05:02:23.503Z,101273.72
2022-10-17T05:04:51.060Z,101281.41
2022-10-17T05:07:18.444Z,101282.22
2022-10-17T05:09:46.219Z,101286.62
2022-10-17T05:12:13.738Z,101282.22
2022-10-17T05:14:41.552Z,101291.75
2022-10-17T05:17:09.183Z,101289.19
2022-10-17T05:19:37.223Z,101294.16
2022-10-17T05:22:04.886Z,101296.00
2022-10-17T05:24:32.522Z,101297.81
2022-10-17T05:26:59.878Z,101305.72
2022-10-17T05:29:27.242Z,101308.34
2022-10-17T05:31:55.375Z,101303.03
2022-10-17T05:34:24.407Z,101308.25
2022-10-17T05:36:51.778Z,101320.53
2022-10-17T05:39:20.716Z,101317.16
2022-10-17T05:41:48.910Z,101325.75
2022-10-17T05:44:16.647Z,101322.41
2022-10-17T05:46:45.551Z,101324.19
2022-10-17T05:49:25.194Z,101324.47
2022-10-17T05:51:59.954Z,101323.72
2022-10-17T05:54:27.669Z,101334.47
2022-10-17T05:56:56.191Z,101340.81
2022-10-17T05:59:25.846Z,101346.16
2022-10-17T06:01:54.326Z,101342.94
2022-10-17T06:04:22.064Z,101349.22
2022-10-17T06:06:49.474Z,101355.72
2022-10-17T06:09:16.883Z,101352.37
2022-10-17T06:11:44.771Z,101352.50
2022-10-17T06:14:12.446Z,101350.94
2022-10-17T06:16:40.174Z,101359.00
2022-10-17T06:19:07.804Z,101367.88
2022-10-17T06:21:37.755Z,101370.72
2022-10-17T06:24:05.405Z,101376.06
2022-10-17T06:26:33.273Z,101375.19
2022-10-17T06:29:00.742Z,101377.09
2022-10-17T06:31:29.119Z,101376.25
2022-10-17T06:33:56.884Z,101374.66
2022-10-17T06:36:24.254Z,101373.03
2022-10-17T06:38:51.721Z,101378.38
2022-10-17T06:41:19.550Z,101382.81
2022-10-17T06:43:47.300Z,101388.12
2022-10-17T06:46:26.688Z,101384.66
2022-10-17T06:48:54.154Z,101390.78
2022-10-17T06:51:22.500Z,101391.69
2022-10-17T06:53:49.942Z,101391.72
2022-10-17T06:56:22.594Z,101397.00
2022-10-17T06:58:51.333Z,101395.22
2022-10-17T07:01:18.942Z,101403.13
2022-10-17T07:03:50.057Z,101399.59
2022-10-17T07:06:17.992Z,101403.97
2022-10-17T07:08:48.352Z,101402.19
2022-10-17T07:11:19.394Z,101405.69
2022-10-17T07:13:49.347Z,101413.59
2022-10-17T07:16:17.115Z,101406.53
2022-10-17T07:18:49.315Z,101413.56
2022-10-17T07:21:17.188Z,101400.38
2022-10-17T07:23:44.600Z,101413.56
2022-10-17T07:26:14.576Z,101412.66
2022-10-17T07:28:44.525Z,101417.00
2022-10-17T07:31:16.933Z,101411.78
2022-10-17T07:36:18.405Z,101416.00
2022-10-17T07:38:46.779Z,101413.34
2022-10-17T07:41:17.887Z,101412.44
2022-10-17T07:43:48.926Z,101411.50
2022-10-17T07:46:16.779Z,101415.91
2022-10-17T07:48:45.084Z,101415.81
2022-10-17T07:51:12.773Z,101422.75
2022-10-17T07:53:42.722Z,101422.78
2022-10-17T07:56:12.953Z,101420.97
2022-10-17T07:58:40.363Z,101426.19
2022-10-17T08:01:14.727Z,101420.81
2022-10-17T08:03:48.493Z,101428.56
2022-10-17T08:06:15.878Z,101425.78
2022-10-17T08:08:44.316Z,101428.47
2022-10-17T08:11:14.277Z,101429.16
2022-10-17T08:13:42.349Z,101437.09
2022-10-17T08:16:11.776Z,101436.94
2022-10-17T08:18:40.379Z,101434.22
2022-10-17T08:21:08.451Z,101440.50
2022-10-17T08:23:36.821Z,101432.03
2022-10-17T08:26:06.058Z,101430.44
2022-10-17T08:28:38.380Z,101438.41
2022-10-17T08:31:11.805Z,101438.41
2022-10-17T08:33:39.525Z,101436.50
2022-10-17T08:36:07.934Z,101436.56
2022-10-17T08:38:37.553Z,101439.22
2022-10-17T08:41:20.929Z,101432.94
2022-10-17T08:44:00.623Z,101437.59
2022-10-17T08:46:34.581Z,101437.50
2022-10-17T08:49:05.682Z,101427.84
2022-10-17T08:51:35.796Z,101439.22
2022-10-17T08:54:14.773Z,101442.00
2022-10-17T08:56:49.172Z,101440.00
2022-10-17T08:59:19.317Z,101442.50
2022-10-17T09:01:55.777Z,101434.69
2022-10-17T09:04:54.527Z,101437.97
2022-10-17T09:07:44.078Z,101437.19
2022-10-17T09:10:29.899Z,101440.78
2022-10-17T09:13:09.111Z,101436.25
2022-10-17T09:16:01.350Z,101440.56
2022-10-17T09:18:35.088Z,101435.50
2022-10-17T09:21:24.078Z,101434.50
2022-10-17T09:23:59.663Z,101427.44
2022-10-17T09:26:39.031Z,101438.91
2022-10-17T09:29:16.158Z,101428.97
2022-10-17T09:32:03.775Z,101425.16
2022-10-17T09:34:32.541Z,101435.16
2022-10-17T09:37:00.936Z,101437.59
2022-10-17T09:39:31.908Z,101440.91
2022-10-17T09:42:00.838Z,101433.09
2022-10-17T09:44:36.231Z,101433.06
2022-10-17T09:47:23.416Z,101435.19
2022-10-17T09:49:51.556Z,101443.72
2022-10-17T09:52:22.736Z,101438.34
2022-10-17T09:55:01.822Z,101434.59
2022-10-17T09:57:54.059Z,101433.72
2022-10-17T10:00:34.665Z,101431.28
2022-10-17T10:03:28.444Z,101435.16
2022-10-17T10:06:07.096Z,101435.81
2022-10-17T10:08:37.452Z,101436.03
2022-10-17T10:11:13.480Z,101436.84
2022-10-17T10:13:42.757Z,101430.56
2022-10-17T10:16:32.374Z,101423.56
2022-10-17T10:18:59.928Z,101423.41
2022-10-17T10:21:27.649Z,101428.69
2022-10-17T10:24:10.151Z,101417.59
2022-10-17T10:26:46.351Z,101428.19
2022-10-17T10:29:31.157Z,101419.50
2022-10-17T10:32:12.196Z,101426.66
2022-10-17T10:34:49.151Z,101416.50
2022-10-17T10:37:20.215Z,101412.00
2022-10-17T10:39:49.882Z,101418.19
2022-10-17T10:42:24.275Z,101409.94
2022-10-17T10:44:52.724Z,101406.63
2022-10-17T10:47:23.960Z,101408.41
2022-10-17T10:49:53.320Z,101411.56
2022-10-17T10:52:29.516Z,101423.16
2022-10-17T10:55:21.431Z,101412.41
2022-10-17T10:57:50.533Z,101409.22
2022-10-17T11:00:24.956Z,101402.94
2022-10-17T11:03:01.874Z,101398.59
2022-10-17T11:05:35.703Z,101404.66
2022-10-17T11:08:41.838Z,101410.78
2022-10-17T11:11:18.279Z,101398.38
2022-10-17T11:14:11.719Z,101399.31
2022-10-17T11:17:10.427Z,101395.72
2022-10-17T11:19:43.949Z,101397.94
2022-10-17T11:22:16.950Z,101401.25
2022-10-17T11:25:05.242Z,101398.38
2022-10-17T11:27:34.119Z,101400.88
2022-10-17T11:30:03.556Z,101393.56
2022-10-17T11:32:45.121Z,101399.16
2022-10-17T11:35:28.120Z,101401.78
2022-10-17T11:38:24.271Z,101393.63
2022-10-17T11:40:54.965Z,101389.28
2022-10-17T11:43:33.079Z,101380.22
2022-10-17T11:46:24.647Z,101378.28
2022-10-17T11:48:57.972Z,101376.19
2022-10-17T11:54:24.888Z,101374.34
2022-10-17T11:57:21.523Z,101373.19
2022-10-17T11:59:57.583Z,101373.09
2022-10-17T12:02:36.922Z,101374.12
2022-10-17T12:05:26.487Z,101373.44
2022-10-17T12:08:03.408Z,101369.88
2022-10-17T12:10:39.467Z,101368.41
2022-10-17T12:13:28.802Z,101366.22
2022-10-17T12:15:57.607Z,101362.34
2022-10-17T12:18:27.358Z,101367.34
2022-10-17T12:20:59.224Z,101361.53
2022-10-17T12:23:27.253Z,101359.47
2022-10-17T12:26:01.606Z,101349.97
2022-10-17T12:28:34.239Z,101350.00
2022-10-17T12:31:05.850Z,101346.16
2022-10-17T12:33:50.016Z,101346.66
2022-10-17T12:36:17.249Z,101343.19
2022-10-17T12:38:49.860Z,101345.44
2022-10-17T12:41:40.254Z,101340.31
2022-10-17T12:44:14.100Z,101336.91
2022-10-17T12:46:56.336Z,101346.47
2022-10-17T12:49:42.551Z,101347.78
2022-10-17T12:52:24.053Z,101341.81
2022-10-17T12:55:00.527Z,101339.94
2022-10-17T12:57:58.710Z,101339.94
2022-10-17T13:00:49.669Z,101339.25
2022-10-17T13:03:31.234Z,101334.53
2022-10-17T13:06:01.230Z,101332.06
2022-10-17T13:08:32.211Z,101331.16
2022-10-17T13:11:00.068Z,101334.34
2022-10-17T13:13:45.460Z,101335.06
2022-10-17T13:16:37.068Z,101329.56
2022-10-17T13:19:51.190Z,101327.34
2022-10-17T13:22:28.147Z,101332.63
2022-10-17T13:25:08.168Z,101329.09
2022-10-17T13:27:36.192Z,101321.37
2022-10-17T13:30:30.918Z,101317.69
2022-10-17T13:33:01.117Z,101318.41
2022-10-17T13:35:59.454Z,101323.72
2022-10-17T13:38:28.378Z,101324.69
2022-10-17T13:41:05.888Z,101321.06
2022-10-17T13:43:43.843Z,101323.03
2022-10-17T13:46:38.276Z,101325.34
2022-10-17T13:49:35.014Z,101320.38
2022-10-17T13:52:04.344Z,101321.25
2022-10-17T13:54:40.267Z,101320.31
2022-10-17T13:57:21.452Z,101318.88
2022-10-17T13:59:55.016Z,101315.37
2022-10-17T14:02:34.795Z,101313.50
2022-10-17T14:05:17.870Z,101311.37
2022-10-17T14:08:12.644Z,101314.13
2022-10-17T14:10:43.387Z,101314.38
2022-10-17T14:13:40.018Z,101317.22
2022-10-17T14:16:08.561Z,101311.13
2022-10-17T14:18:36.985Z,101303.94
2022-10-17T14:24:22.459Z,101305.53
2022-10-17T14:26:59.099Z,101304.47
2022-10-17T14:29:50.050Z,101302.66
2022-10-17T14:32:18.159Z,101299.28
2022-10-17T14:34:46.829Z,101306.47
2022-10-17T14:37:42.856Z,101314.50
2022-10-17T14:40:21.314Z,101313.66
2022-10-17T14:42:48.734Z,101308.25
2022-10-17T14:45:26.596Z,101305.84
2022-10-17T14:47:55.499Z,101310.06
2022-10-17T14:50:32.079Z,101302.00
2022-10-17T14:53:11.658Z,101310.09
2022-10-17T14:55:40.773Z,101313.72
2022-10-17T14:58:18.964Z,101302.97
2022-10-17T15:00:46.541Z,101305.78
2022-10-17T15:03:13.941Z,101301.47
2022-10-17T15:05:41.664Z,101300.88
2022-10-17T15:08:14.257Z,101303.50
2022-10-17T15:10:41.992Z,101303.59
2022-10-17T15:13:28.019Z,101307.06
2022-10-17T15:15:56.272Z,101308.91
2022-10-17T15:18:23.815Z,101306.31
2022-10-17T15:20:59.513Z,101309.16
2022-10-17T15:23:32.760Z,101312.72
2022-10-17T15:26:00.740Z,101312.56
2022-10-17T15:28:28.058Z,101320.66
2022-10-17T15:30:55.711Z,101321.53
2022-10-17T15:33:23.092Z,101320.72
2022-10-17T15:35:51.772Z,101315.63
2022-10-17T15:38:19.452Z,101316.75
2022-10-17T15:40:50.738Z,101315.94
2022-10-17T15:43:19.960Z,101320.72
2022-10-17T15:45:48.175Z,101321.91
2022-10-17T15:48:19.600Z,101327.63
2022-10-17T15:50:46.910Z,101328.41
2022-10-17T15:53:14.516Z,101325.13
2022-10-17T15:55:42.053Z,101331.53
2022-10-17T15:58:14.664Z,101335.16
2022-10-17T16:00:42.327Z,101337.12
2022-10-17T16:03:10.020Z,101340.97
2022-10-17T16:05:37.355Z,101334.03
2022-10-17T16:08:04.869Z,101337.88
2022-10-17T16:10:33.278Z,101341.56
2022-10-17T16:13:00.567Z,101339.09
2022-10-17T16:15:28.162Z,101341.09
2022-10-17T16:17:56.910Z,101339.28
2022-10-17T16:20:24.909Z,101342.00
2022-10-17T16:22:53.250Z,101345.72
2022-10-17T16:25:26.216Z,101347.72
2022-10-17T16:27:55.260Z,101343.53
2022-10-17T16:30:24.753Z,101357.53
2022-10-17T16:32:53.009Z,101350.53
2022-10-17T16:35:33.088Z,101341.97
2022-10-17T16:38:05.927Z,101349.06
2022-10-17T16:40:33.461Z,101350.91
2022-10-17T16:43:00.770Z,101351.87
2022-10-17T16:45:28.372Z,101359.94
2022-10-17T16:47:55.932Z,101365.22
2022-10-17T16:50:23.289Z,101369.72
2022-10-17T16:52:50.856Z,101366.16
2022-10-17T16:55:18.950Z,101371.59
2022-10-17T16:57:48.619Z,101367.31
2022-10-17T17:00:17.396Z,101370.88
2022-10-17T17:02:47.629Z,101370.03
2022-10-17T17:05:15.265Z,101370.03
2022-10-17T17:07:42.819Z,101370.97
2022-10-17T17:10:10.148Z,101371.88
2022-10-17T17:12:37.492Z,101373.69
2022-10-17T17:15:06.108Z,101378.09
2022-10-17T17:17:48.817Z,101376.37
2022-10-17T17:20:17.946Z,101380.78
2022-10-17T17:22:45.623Z,101385.22
2022-10-17T17:25:12.915Z,101379.16
2022-10-17T17:27:41.055Z,101385.34
2022-10-17T17:30:08.763Z,101386.25
2022-10-17T17:32:36.050Z,101387.16
2022-10-17T17:35:03.835Z,101378.38
2022-10-17T17:37:31.646Z,101386.31
2022-10-17T17:39:59.157Z,101379.31
2022-10-17T17:42:26.720Z,101381.94
2022-10-17T17:44:54.011Z,101387.22
2022-10-17T17:47:21.310Z,101389.00
2022-10-17T17:49:48.848Z,101385.50
2022-10-17T17:52:16.134Z,101386.34
2022-10-17T17:54:44.492Z,101388.12
2022-10-17T17:57:12.463Z,101386.41
2022-10-17T17:59:41.098Z,101388.16
2022-10-17T18:02:10.455Z,101382.06
2022-10-17T18:04:38.058Z,101386.44
2022-10-17T18:07:05.400Z,101394.34
2022-10-17T18:09:32.696Z,101393.47
2022-10-17T18:12:00.252Z,101392.59
2022-10-17T18:14:27.576Z,101384.69
2022-10-17T18:16:54.873Z,101385.59
2022-10-17T18:19:23.726Z,101385.59
2022-10-17T18:21:51.122Z,101389.13
2022-10-17T18:24:18.412Z,101381.22
2022-10-17T18:26:45.982Z,101378.59
2022-10-17T18:29:13.281Z,101383.88
2022-10-17T18:31:40.783Z,101376.88
2022-10-17T18:34:08.343Z,101382.97
2022-10-17T18:36:35.791Z,101379.50
2022-10-17T18:39:04.330Z,101384.75
2022-10-17T18:41:32.086Z,101385.59
2022-10-17T18:43:59.658Z,101383.81
2022-10-17T18:46:35.479Z,101377.69
2022-10-17T18:49:03.453Z,101386.41
2022-10-17T18:51:30.864Z,101385.56
2022-10-17T18:53:58.734Z,101387.31
2022-10-17T18:56:26.871Z,101382.94
2022-10-17T18:58:54.990Z,101387.28
2022-10-17T19:01:24.781Z,101388.16
2022-10-17T19:03:53.934Z,101384.66
2022-10-17T19:06:24.833Z,101384.66
2022-10-17T19:08:52.547Z,101386.37
2022-10-17T19:11:22.399Z,101387.25
2022-10-17T19:13:50.109Z,101392.44
2022-10-17T19:16:22.307Z,101385.50
2022-10-17T19:18:51.344Z,101389.87
2022-10-17T19:21:21.838Z,101387.28
2022-10-17T19:23:51.603Z,101387.25
2022-10-17T19:26:19.704Z,101382.00
2022-10-17T19:28:47.815Z,101385.50
2022-10-17T19:31:17.986Z,101390.72
2022-10-17T19:33:46.039Z,101385.47
2022-10-17T19:36:13.958Z,101385.41
2022-10-17T19:38:41.270Z,101389.78
2022-10-17T19:41:10.652Z,101381.00
2022-10-17T19:43:42.031Z,101381.91
2022-10-17T19:46:12.754Z,101375.78
2022-10-17T19:48:40.113Z,101381.84
2022-10-17T19:51:13.612Z,101388.81
2022-10-17T19:53:41.883Z,101385.31
2022-10-17T19:56:09.541Z,101387.03
2022-10-17T19:58:44.413Z,101389.72
2022-10-17T20:01:18.229Z,101390.53
2022-10-17T20:03:46.194Z,101385.31
2022-10-17T20:06:13.825Z,101394.03
2022-10-17T20:08:41.434Z,101382.66
2022-10-17T20:11:14.737Z,101381.66
2022-10-17T20:13:42.197Z,101390.44
2022-10-17T20:16:12.754Z,101399.13
2022-10-17T20:18:40.912Z,101394.81
2022-10-17T20:21:11.275Z,101393.81
2022-10-17T20:23:39.573Z,101393.88
2022-10-17T20:26:33.254Z,101392.00
2022-10-17T20:29:04.178Z,101389.44
2022-10-17T20:31:31.541Z,101392.03
2022-10-17T20:33:59.576Z,101394.66
2022-10-17T20:36:27.229Z,101394.69
2022-10-17T20:38:55.643Z,101399.03
2022-10-17T20:41:23.584Z,101392.84
2022-10-17T20:43:53.750Z,101385.84
2022-10-17T20:46:35.820Z,101389.28
2022-10-17T20:49:05.972Z,101388.50
2022-10-17T20:51:33.687Z,101393.63
2022-10-17T20:54:00.992Z,101384.81
2022-10-17T20:56:30.121Z,101385.81
2022-10-17T20:58:59.857Z,101387.50
2022-10-17T21:01:28.651Z,101384.88
2022-10-17T21:03:59.638Z,101378.72
2022-10-17T21:06:30.264Z,101390.91
2022-10-17T21:08:58.095Z,101383.88
2022-10-17T21:11:27.416Z,101387.38
2022-10-17T21:14:02.460Z,101390.03
2022-10-17T21:16:31.724Z,101387.31
2022-10-17T21:18:59.430Z,101386.47
2022-10-17T21:21:29.581Z,101392.56
2022-10-17T21:24:00.296Z,101395.19
2022-10-17T21:26:28.287Z,101389.91
2022-10-17T21:28:55.682Z,101395.12
2022-10-17T21:31:25.381Z,101394.22
2022-10-17T21:33:56.248Z,101391.62
2022-10-17T21:36:25.118Z,101386.41
2022-10-17T21:38:54.138Z,101391.53
2022-10-17T21:41:23.806Z,101388.94
2022-10-17T21:43:56.651Z,101393.19
2022-10-17T21:46:24.372Z,101390.59
2022-10-17T21:48:52.271Z,101392.28
2022-10-17T21:51:21.743Z,101394.97
2022-10-17T21:53:50.277Z,101385.31
2022-10-17T21:56:20.063Z,101383.50
2022-10-17T21:58:47.948Z,101383.50
2022-10-17T22:01:39.170Z,101380.09
2022-10-17T22:04:09.900Z,101385.28
2022-10-17T22:06:40.149Z,101378.34
2022-10-17T22:09:11.770Z,101378.16
2022-10-17T22:11:39.082Z,101375.53
2022-10-17T22:14:17.234Z,101372.87
2022-10-17T22:16:46.352Z,101371.22
2022-10-17T22:19:15.754Z,101374.66
2022-10-17T22:21:43.076Z,101366.72
2022-10-17T22:24:12.529Z,101369.22
2022-10-17T22:26:39.935Z,101368.44
2022-10-17T22:29:08.147Z,101375.38
2022-10-17T22:31:36.381Z,101372.72
2022-10-17T22:34:05.475Z,101367.47
2022-10-17T22:36:33.645Z,101372.75
2022-10-17T22:39:01.298Z,101364.81
2022-10-17T22:41:28.648Z,101363.09
2022-10-17T22:43:55.950Z,101364.00
2022-10-17T22:46:23.516Z,101361.31
2022-10-17T22:48:50.867Z,101368.22
2022-10-17T22:51:18.364Z,101372.63
2022-10-17T22:53:45.943Z,101372.56
2022-10-17T22:56:15.944Z,101370.66
2022-10-17T22:58:43.315Z,101376.91
2022-10-17T23:01:18.636Z,101371.53
2022-10-17T23:03:46.625Z,101366.31
2022-10-17T23:06:14.428Z,101366.34
2022-10-17T23:08:42.177Z,101361.12
2022-10-17T23:11:09.781Z,101357.53
2022-10-17T23:13:37.434Z,101359.25
2022-10-17T23:16:04.873Z,101351.47
2022-10-17T23:18:32.215Z,101346.09
2022-10-17T23:20:59.788Z,101341.94
2022-10-17T23:23:27.083Z,101345.34
2022-10-17T23:25:54.756Z,101337.41
2022-10-17T23:28:22.323Z,101341.00
2022-10-17T23:30:49.603Z,101345.97
2022-10-17T23:33:16.910Z,101340.00
2022-10-17T23:35:44.475Z,101340.81
2022-10-17T23:38:11.781Z,101333.78
2022-10-17T23:40:39.085Z,101336.47
2022-10-17T23:43:06.674Z,101337.34
2022-10-17T23:45:36.791Z,101333.94
2022-10-17T23:48:05.469Z,101335.53
2022-10-17T23:50:33.129Z,101337.34
2022-10-17T23:53:00.408Z,101336.41
2022-10-17T23:55:27.701Z,101329.31
2022-10-17T23:57:55.387Z,101327.63
